Map

Track Data

SID SEASON NUMBER BASIN SUBBASIN NAME ISO_TIME NATURE LAT LON WMO_WIND WMO_PRES WMO_AGENCY TRACK_TYPE DIST2LAND LANDFALL IFLAG USA_AGENCY USA_ATCF_ID USA_LAT USA_LON USA_RECORD USA_STATUS USA_WIND USA_PRES USA_SSHS USA_R34_NE USA_R34_SE USA_R34_SW USA_R34_NW USA_R50_NE USA_R50_SE USA_R50_SW USA_R50_NW USA_R64_NE USA_R64_SE USA_R64_SW USA_R64_NW USA_POCI USA_ROCI USA_RMW USA_EYE TOKYO_LAT TOKYO_LON TOKYO_GRADE TOKYO_WIND TOKYO_PRES TOKYO_R50_DIR TOKYO_R50_LONG TOKYO_R50_SHORT TOKYO_R30_DIR TOKYO_R30_LONG TOKYO_R30_SHORT TOKYO_LAND CMA_LAT CMA_LON CMA_CAT CMA_WIND CMA_PRES HKO_LAT HKO_LON HKO_CAT HKO_WIND HKO_PRES NEWDELHI_LAT NEWDELHI_LON NEWDELHI_GRADE NEWDELHI_WIND NEWDELHI_PRES NEWDELHI_CI NEWDELHI_DP NEWDELHI_POCI REUNION_LAT REUNION_LON REUNION_TYPE REUNION_WIND REUNION_PRES REUNION_TNUM REUNION_CI REUNION_RMW REUNION_R34_NE REUNION_R34_SE REUNION_R34_SW REUNION_R34_NW REUNION_R50_NE REUNION_R50_SE REUNION_R50_SW REUNION_R50_NW REUNION_R64_NE REUNION_R64_SE REUNION_R64_SW REUNION_R64_NW BOM_LAT BOM_LON BOM_TYPE BOM_WIND BOM_PRES BOM_TNUM BOM_CI BOM_RMW BOM_R34_NE BOM_R34_SE BOM_R34_SW BOM_R34_NW BOM_R50_NE BOM_R50_SE BOM_R50_SW BOM_R50_NW BOM_R64_NE BOM_R64_SE BOM_R64_SW BOM_R64_NW BOM_ROCI BOM_POCI BOM_EYE BOM_POS_METHOD BOM_PRES_METHOD NADI_LAT NADI_LON NADI_CAT NADI_WIND NADI_PRES WELLINGTON_LAT WELLINGTON_LON WELLINGTON_WIND WELLINGTON_PRES DS824_LAT DS824_LON DS824_STAGE DS824_WIND DS824_PRES TD9636_LAT TD9636_LON TD9636_STAGE TD9636_WIND TD9636_PRES TD9635_LAT TD9635_LON TD9635_WIND TD9635_PRES TD9635_ROCI NEUMANN_LAT NEUMANN_LON NEUMANN_CLASS NEUMANN_WIND NEUMANN_PRES MLC_LAT MLC_LON MLC_CLASS MLC_WIND MLC_PRES USA_GUST BOM_GUST BOM_GUST_PER REUNION_GUST REUNION_GUST_PER USA_SEAHGT USA_SEARAD_NE USA_SEARAD_SE USA_SEARAD_SW USA_SEARAD_NW STORM_SPEED STORM_DIR
1933279N17146 1933 64 WP MM NOT_NAMED 1933-10-05 21:00:00 NR 16.8000 146.000 main 2110 2086 __________O___ -1 16.8000 146.000 4 4 328
1933279N17146 1933 64 WP MM NOT_NAMED 1933-10-06 00:00:00 NR 16.9719 145.891 main 2086 2061 __________P___ -1 16.9719 145.891 4 4 331
1933279N17146 1933 64 WP MM NOT_NAMED 1933-10-06 03:00:00 NR 17.1651 145.786 main 2061 2037 __________P___ -1 17.1651 145.786 4 5 336
1933279N17146 1933 64 WP MM NOT_NAMED 1933-10-06 06:00:00 NR 17.4007 145.687 main 2037 2002 __________P___ -1 17.4007 145.687 4 6 342
1933279N17146 1933 64 WP MM NOT_NAMED 1933-10-06 09:00:00 NR 17.7000 145.600 main 2002 1956 __________O___ -1 17.7000 145.600 4 7 347
1933279N17146 1933 64 WP MM NOT_NAMED 1933-10-06 12:00:00 NR 18.0787 145.524 main 1956 1910 __________P___ -1 18.0787 145.524 4 8 350
1933279N17146 1933 64 WP MM NOT_NAMED 1933-10-06 15:00:00 NR 18.5299 145.444 main 1910 1853 __________P___ -1 18.5299 145.444 4 10 350
1933279N17146 1933 64 WP MM NOT_NAMED 1933-10-06 18:00:00 NR 19.0411 145.342 main 1853 1786 __________P___ -1 19.0411 145.342 4 11 348
1933279N17146 1933 64 WP MM NOT_NAMED 1933-10-06 21:00:00 NR 19.6000 145.200 main 1786 1718 __________O___ -1 19.6000 145.200 4 12 349
1933279N17146 1933 64 WP MM NOT_NAMED 1933-10-07 00:00:00 NR 20.2166 145.101 main 1718 1651 __________P___ -1 20.2166 145.101 4 13 349
1933279N17146 1933 64 WP MM NOT_NAMED 1933-10-07 03:00:00 NR 20.8692 144.944 main 1637 1567 __________P___ -1 20.8692 144.944 4 14 343
1933279N17146 1933 64 WP MM NOT_NAMED 1933-10-07 06:00:00 NR 21.5123 144.666 main 1567 1488 __________P___ -1 21.5123 144.666 4 14 331
1933279N17146 1933 64 WP MM NOT_NAMED 1933-10-07 09:00:00 NR 22.1000 144.200 main 1488 1412 __________O___ -1 22.1000 144.200 4 16 312
1933279N17146 1933 64 WP MM NOT_NAMED 1933-10-07 12:00:00 NR 22.5741 143.374 main 1412 1327 __________P___ -1 22.5741 143.374 4 19 298
1933279N17146 1933 64 WP MM NOT_NAMED 1933-10-07 15:00:00 NR 22.9830 142.376 main 1327 1252 __________P___ -1 22.9830 142.376 4 20 293
1933279N17146 1933 64 WP MM NOT_NAMED 1933-10-07 18:00:00 NR 23.3494 141.364 main 1252 1175 __________P___ -1 23.3494 141.364 4 19 293
1933279N17146 1933 64 WP MM NOT_NAMED 1933-10-07 21:00:00 NR 23.7000 140.500 main 1175 1125 __________O___ -1 23.7000 140.500 4 15 300
1933279N17146 1933 64 WP MM NOT_NAMED 1933-10-08 00:00:00 NR 24.0706 139.992 main 1115 1073 __________P___ -1 24.0706 139.992 4 11 314
1933279N17146 1933 64 WP MM NOT_NAMED 1933-10-08 03:00:00 NR 24.4385 139.651 main 1073 1021 __________P___ -1 24.4385 139.651 4 9 325
1933279N17146 1933 64 WP MM NOT_NAMED 1933-10-08 06:00:00 NR 24.8123 139.411 main 1021 972 __________P___ -1 24.8123 139.411 4 9 332
1933279N17146 1933 64 WP MM NOT_NAMED 1933-10-08 09:00:00 NR 25.2000 139.200 main 972 920 __________O___ -1 25.2000 139.200 4 9 328
1933279N17146 1933 64 WP MM NOT_NAMED 1933-10-08 12:00:00 NR 25.6067 138.866 main 920 868 __________P___ -1 25.6067 138.866 4 10 325
1933279N17146 1933 64 WP MM NOT_NAMED 1933-10-08 15:00:00 NR 26.0277 138.553 main 868 817 __________P___ -1 26.0277 138.553 4 10 329
1933279N17146 1933 64 WP MM NOT_NAMED 1933-10-08 18:00:00 NR 26.4599 138.289 main 806 758 __________P___ -1 26.4599 138.289 4 10 335
1933279N17146 1933 64 WP MM NOT_NAMED 1933-10-08 21:00:00 NR 26.9000 138.100 main 758 709 __________O___ -1 26.9000 138.100 4 10 338
1933279N17146 1933 64 WP MM NOT_NAMED 1933-10-09 00:00:00 NR 27.3451 137.897 main 709 653 __________P___ -1 27.3451 137.897 4 9 343
1933279N17146 1933 64 WP MM NOT_NAMED 1933-10-09 03:00:00 NR 27.7968 137.789 main 653 610 __________P___ -1 27.7968 137.789 4 9 357
1933279N17146 1933 64 WP MM NOT_NAMED 1933-10-09 06:00:00 NR 28.2502 137.836 main 600 568 __________P___ -1 28.2502 137.836 4 9 17
1933279N17146 1933 64 WP MM NOT_NAMED 1933-10-09 09:00:00 NR 28.7000 138.100 main 568 543 __________O___ -1 28.7000 138.100 4 11 35
1933279N17146 1933 64 WP MM NOT_NAMED 1933-10-09 12:00:00 NR 29.1678 138.580 main 538 530 __________P___ -1 29.1678 138.580 4 14 48
1933279N17146 1933 64 WP MM NOT_NAMED 1933-10-09 15:00:00 NR 29.6230 139.287 main 537 525 __________P___ -1 29.6230 139.287 4 16 58
1933279N17146 1933 64 WP MM NOT_NAMED 1933-10-09 18:00:00 NR 30.0416 140.175 main 529 511 __________P___ -1 30.0416 140.175 4 18 65
1933279N17146 1933 64 WP MM NOT_NAMED 1933-10-09 21:00:00 NR 30.4000 141.200 main 516 510 __________O___ -1 30.4000 141.200 4 18 71
1933279N17146 1933 64 WP MM NOT_NAMED 1933-10-10 00:00:00 NR 30.6246 142.167 main 525 519 __________P___ -1 30.6246 142.167 4 18 77
1933279N17146 1933 64 WP MM NOT_NAMED 1933-10-10 03:00:00 NR 30.7943 143.265 main 556 556 __________P___ -1 30.7943 143.265 4 21 80
1933279N17146 1933 64 WP MM NOT_NAMED 1933-10-10 06:00:00 NR 30.9674 144.529 main 603 603 __________P___ -1 30.9674 144.529 4 24 80
1933279N17146 1933 64 WP MM NOT_NAMED 1933-10-10 09:00:00 NR 31.2000 146.000 main 684 684 __________O___ -1 31.2000 146.000 4 28 78
1933279N17146 1933 64 WP MM NOT_NAMED 1933-10-10 12:00:00 NR 31.5304 147.707 main 783 783 __________P___ -1 31.5304 147.707 4 32 77
1933279N17146 1933 64 WP MM NOT_NAMED 1933-10-10 15:00:00 NR 31.9333 149.615 main 906 906 __________P___ -1 31.9333 149.615 4 35 76
1933279N17146 1933 64 WP MM NOT_NAMED 1933-10-10 18:00:00 NR 32.3688 151.666 main 1058 1058 __________P___ -1 32.3688 151.666 4 36 76
1933279N17146 1933 64 WP MM NOT_NAMED 1933-10-10 21:00:00 NR 32.8000 153.800 main 1225 __________O___ -1 32.8000 153.800 4 37 76

Digital Typhoon Data and Search

About IBTrACS Database

This database is a web-friendly format of International Best Track Archive for Climate Stewardship (IBTrACS), a global best track data archive curated by NOAA dating back to 1842.

Updated: 2021-10-08